sensor_id;sensor_type;location;lat;lon;timestamp;P1;durP1;ratioP1;P2;durP2;ratioP2
68680;SDS011;55836;49.858;6.756;2023-04-25T00:01:30;16.67;;;11.93;;
68680;SDS011;55836;49.858;6.756;2023-04-25T00:03:58;15.03;;;10.40;;
68680;SDS011;55836;49.858;6.756;2023-04-25T00:06:26;15.53;;;10.97;;
68680;SDS011;55836;49.858;6.756;2023-04-25T00:08:52;16.13;;;11.83;;
68680;SDS011;55836;49.858;6.756;2023-04-25T00:11:19;16.90;;;12.57;;
68680;SDS011;55836;49.858;6.756;2023-04-25T00:13:45;16.87;;;11.57;;
68680;SDS011;55836;49.858;6.756;2023-04-25T00:16:11;16.03;;;11.63;;
68680;SDS011;55836;49.858;6.756;2023-04-25T00:18:41;17.77;;;12.07;;
68680;SDS011;55836;49.858;6.756;2023-04-25T00:21:07;14.87;;;11.37;;
68680;SDS011;55836;49.858;6.756;2023-04-25T00:23:33;15.23;;;11.97;;
68680;SDS011;55836;49.858;6.756;2023-04-25T00:26:01;14.80;;;10.53;;
68680;SDS011;55836;49.858;6.756;2023-04-25T00:28:27;16.47;;;11.30;;
68680;SDS011;55836;49.858;6.756;2023-04-25T00:30:53;16.93;;;11.13;;
68680;SDS011;55836;49.858;6.756;2023-04-25T00:33:21;15.93;;;11.23;;
68680;SDS011;55836;49.858;6.756;2023-04-25T00:35:47;15.23;;;11.80;;
68680;SDS011;55836;49.858;6.756;2023-04-25T00:38:13;17.87;;;12.83;;
68680;SDS011;55836;49.858;6.756;2023-04-25T00:40:39;16.43;;;12.23;;
68680;SDS011;55836;49.858;6.756;2023-04-25T00:43:08;17.50;;;11.67;;
68680;SDS011;55836;49.858;6.756;2023-04-25T00:45:34;16.87;;;12.37;;
68680;SDS011;55836;49.858;6.756;2023-04-25T00:48:04;18.83;;;11.43;;
68680;SDS011;55836;49.858;6.756;2023-04-25T00:50:30;15.00;;;11.87;;
68680;SDS011;55836;49.858;6.756;2023-04-25T00:52:56;17.53;;;12.20;;
68680;SDS011;55836;49.858;6.756;2023-04-25T00:55:22;18.03;;;12.03;;
68680;SDS011;55836;49.858;6.756;2023-04-25T00:57:48;16.70;;;12.43;;
68680;SDS011;55836;49.858;6.756;2023-04-25T01:00:14;19.40;;;12.97;;
68680;SDS011;55836;49.858;6.756;2023-04-25T01:02:41;18.57;;;13.30;;
68680;SDS011;55836;49.858;6.756;2023-04-25T01:05:07;18.37;;;12.30;;
68680;SDS011;55836;49.858;6.756;2023-04-25T01:07:33;20.00;;;13.10;;
68680;SDS011;55836;49.858;6.756;2023-04-25T01:10:00;18.87;;;13.43;;
68680;SDS011;55836;49.858;6.756;2023-04-25T01:12:26;20.13;;;13.50;;
68680;SDS011;55836;49.858;6.756;2023-04-25T01:14:52;19.23;;;12.87;;
68680;SDS011;55836;49.858;6.756;2023-04-25T01:17:18;20.83;;;13.53;;
68680;SDS011;55836;49.858;6.756;2023-04-25T01:19:44;21.23;;;14.67;;
68680;SDS011;55836;49.858;6.756;2023-04-25T01:22:13;20.10;;;13.50;;
68680;SDS011;55836;49.858;6.756;2023-04-25T01:24:39;19.40;;;13.47;;
68680;SDS011;55836;49.858;6.756;2023-04-25T01:27:05;18.43;;;12.67;;
68680;SDS011;55836;49.858;6.756;2023-04-25T01:29:33;20.90;;;14.43;;
68680;SDS011;55836;49.858;6.756;2023-04-25T01:32:00;18.00;;;12.60;;
68680;SDS011;55836;49.858;6.756;2023-04-25T01:34:26;20.60;;;14.27;;
68680;SDS011;55836;49.858;6.756;2023-04-25T01:36:53;22.97;;;16.47;;
68680;SDS011;55836;49.858;6.756;2023-04-25T01:39:19;20.60;;;14.97;;
68680;SDS011;55836;49.858;6.756;2023-04-25T01:41:46;19.30;;;13.33;;
68680;SDS011;55836;49.858;6.756;2023-04-25T01:44:13;17.33;;;13.17;;
68680;SDS011;55836;49.858;6.756;2023-04-25T01:46:39;16.70;;;12.43;;
68680;SDS011;55836;49.858;6.756;2023-04-25T01:49:06;20.37;;;13.27;;
68680;SDS011;55836;49.858;6.756;2023-04-25T01:51:32;15.90;;;12.30;;
68680;SDS011;55836;49.858;6.756;2023-04-25T01:53:58;17.93;;;12.67;;
68680;SDS011;55836;49.858;6.756;2023-04-25T01:56:24;18.57;;;12.57;;
68680;SDS011;55836;49.858;6.756;2023-04-25T01:58:50;19.60;;;13.03;;
68680;SDS011;55836;49.858;6.756;2023-04-25T02:01:17;19.10;;;13.67;;
68680;SDS011;55836;49.858;6.756;2023-04-25T02:03:43;19.53;;;14.17;;
68680;SDS011;55836;49.858;6.756;2023-04-25T02:06:09;19.83;;;14.17;;
68680;SDS011;55836;49.858;6.756;2023-04-25T02:08:35;19.23;;;12.90;;
68680;SDS011;55836;49.858;6.756;2023-04-25T02:11:02;20.47;;;13.00;;
68680;SDS011;55836;49.858;6.756;2023-04-25T02:13:28;15.57;;;12.10;;
68680;SDS011;55836;49.858;6.756;2023-04-25T02:15:54;17.90;;;12.93;;
68680;SDS011;55836;49.858;6.756;2023-04-25T02:18:20;19.23;;;13.17;;
68680;SDS011;55836;49.858;6.756;2023-04-25T02:20:46;19.53;;;12.53;;
68680;SDS011;55836;49.858;6.756;2023-04-25T02:23:13;17.73;;;12.50;;
68680;SDS011;55836;49.858;6.756;2023-04-25T02:25:40;18.37;;;13.03;;
68680;SDS011;55836;49.858;6.756;2023-04-25T02:28:06;18.20;;;13.23;;
68680;SDS011;55836;49.858;6.756;2023-04-25T02:30:32;26.20;;;16.37;;
68680;SDS011;55836;49.858;6.756;2023-04-25T02:32:58;43.20;;;28.17;;
68680;SDS011;55836;49.858;6.756;2023-04-25T02:35:24;18.73;;;13.37;;
68680;SDS011;55836;49.858;6.756;2023-04-25T02:37:50;21.80;;;13.67;;
68680;SDS011;55836;49.858;6.756;2023-04-25T02:40:16;41.63;;;29.60;;
68680;SDS011;55836;49.858;6.756;2023-04-25T02:42:42;45.47;;;34.23;;
68680;SDS011;55836;49.858;6.756;2023-04-25T02:45:10;25.80;;;17.73;;
68680;SDS011;55836;49.858;6.756;2023-04-25T02:47:37;20.40;;;12.93;;
68680;SDS011;55836;49.858;6.756;2023-04-25T02:50:03;23.67;;;12.83;;
68680;SDS011;55836;49.858;6.756;2023-04-25T02:52:29;21.10;;;13.90;;
68680;SDS011;55836;49.858;6.756;2023-04-25T02:54:55;28.07;;;20.87;;
68680;SDS011;55836;49.858;6.756;2023-04-25T02:57:21;25.60;;;20.57;;
68680;SDS011;55836;49.858;6.756;2023-04-25T02:59:47;18.27;;;14.23;;
68680;SDS011;55836;49.858;6.756;2023-04-25T03:02:13;21.50;;;13.80;;
68680;SDS011;55836;49.858;6.756;2023-04-25T03:04:39;22.37;;;12.60;;
68680;SDS011;55836;49.858;6.756;2023-04-25T03:07:05;17.73;;;11.90;;
68680;SDS011;55836;49.858;6.756;2023-04-25T03:09:31;19.67;;;12.63;;
68680;SDS011;55836;49.858;6.756;2023-04-25T03:11:57;18.50;;;12.60;;
68680;SDS011;55836;49.858;6.756;2023-04-25T03:14:23;20.63;;;14.33;;
68680;SDS011;55836;49.858;6.756;2023-04-25T03:16:49;21.80;;;13.30;;
68680;SDS011;55836;49.858;6.756;2023-04-25T03:19:15;20.03;;;13.43;;
68680;SDS011;55836;49.858;6.756;2023-04-25T03:21:42;21.00;;;12.97;;
68680;SDS011;55836;49.858;6.756;2023-04-25T03:24:08;21.57;;;13.63;;
68680;SDS011;55836;49.858;6.756;2023-04-25T03:26:35;23.47;;;15.87;;
68680;SDS011;55836;49.858;6.756;2023-04-25T03:29:02;19.47;;;13.17;;
68680;SDS011;55836;49.858;6.756;2023-04-25T03:31:28;20.10;;;13.93;;
68680;SDS011;55836;49.858;6.756;2023-04-25T03:33:54;20.13;;;13.07;;
68680;SDS011;55836;49.858;6.756;2023-04-25T03:36:20;19.27;;;13.27;;
68680;SDS011;55836;49.858;6.756;2023-04-25T03:38:46;17.47;;;13.50;;
68680;SDS011;55836;49.858;6.756;2023-04-25T03:41:13;22.67;;;13.80;;
68680;SDS011;55836;49.858;6.756;2023-04-25T03:43:39;20.60;;;12.77;;
68680;SDS011;55836;49.858;6.756;2023-04-25T03:46:05;18.63;;;13.37;;
68680;SDS011;55836;49.858;6.756;2023-04-25T03:48:31;15.73;;;11.60;;
68680;SDS011;55836;49.858;6.756;2023-04-25T03:50:57;21.70;;;14.00;;
68680;SDS011;55836;49.858;6.756;2023-04-25T03:53:23;20.60;;;13.00;;
68680;SDS011;55836;49.858;6.756;2023-04-25T03:55:49;23.50;;;16.13;;
68680;SDS011;55836;49.858;6.756;2023-04-25T03:58:15;21.33;;;14.40;;
68680;SDS011;55836;49.858;6.756;2023-04-25T04:00:41;20.47;;;12.50;;
68680;SDS011;55836;49.858;6.756;2023-04-25T04:03:07;18.47;;;12.33;;
68680;SDS011;55836;49.858;6.756;2023-04-25T04:05:33;21.10;;;12.93;;
68680;SDS011;55836;49.858;6.756;2023-04-25T04:07:59;19.20;;;14.00;;
68680;SDS011;55836;49.858;6.756;2023-04-25T04:10:25;19.00;;;13.03;;
68680;SDS011;55836;49.858;6.756;2023-04-25T04:12:51;17.73;;;12.43;;
68680;SDS011;55836;49.858;6.756;2023-04-25T04:15:17;20.50;;;13.90;;
68680;SDS011;55836;49.858;6.756;2023-04-25T04:17:43;21.70;;;14.57;;
68680;SDS011;55836;49.858;6.756;2023-04-25T04:20:10;18.07;;;11.50;;
68680;SDS011;55836;49.858;6.756;2023-04-25T04:22:36;20.10;;;13.57;;
68680;SDS011;55836;49.858;6.756;2023-04-25T04:25:02;19.67;;;12.70;;
68680;SDS011;55836;49.858;6.756;2023-04-25T04:27:29;18.20;;;12.67;;
68680;SDS011;55836;49.858;6.756;2023-04-25T04:29:55;17.17;;;12.43;;
68680;SDS011;55836;49.858;6.756;2023-04-25T04:32:22;16.87;;;12.40;;
68680;SDS011;55836;49.858;6.756;2023-04-25T04:34:49;20.27;;;12.83;;
68680;SDS011;55836;49.858;6.756;2023-04-25T04:37:15;19.03;;;12.33;;
68680;SDS011;55836;49.858;6.756;2023-04-25T04:39:41;20.57;;;13.47;;
68680;SDS011;55836;49.858;6.756;2023-04-25T04:42:07;22.13;;;13.70;;
68680;SDS011;55836;49.858;6.756;2023-04-25T04:44:33;19.57;;;12.57;;
68680;SDS011;55836;49.858;6.756;2023-04-25T04:47:00;18.90;;;12.73;;
68680;SDS011;55836;49.858;6.756;2023-04-25T04:49:26;19.23;;;12.87;;
68680;SDS011;55836;49.858;6.756;2023-04-25T04:51:53;19.20;;;13.57;;
68680;SDS011;55836;49.858;6.756;2023-04-25T04:54:19;20.13;;;13.47;;
68680;SDS011;55836;49.858;6.756;2023-04-25T04:56:45;19.13;;;13.40;;
68680;SDS011;55836;49.858;6.756;2023-04-25T04:59:11;19.73;;;13.60;;
68680;SDS011;55836;49.858;6.756;2023-04-25T05:01:37;21.20;;;14.40;;
68680;SDS011;55836;49.858;6.756;2023-04-25T05:04:03;21.20;;;14.73;;
68680;SDS011;55836;49.858;6.756;2023-04-25T05:06:30;22.40;;;14.00;;
68680;SDS011;55836;49.858;6.756;2023-04-25T05:08:56;18.13;;;13.13;;
68680;SDS011;55836;49.858;6.756;2023-04-25T05:11:23;19.73;;;13.43;;
68680;SDS011;55836;49.858;6.756;2023-04-25T05:13:51;20.03;;;13.43;;
68680;SDS011;55836;49.858;6.756;2023-04-25T05:16:17;19.90;;;13.00;;
68680;SDS011;55836;49.858;6.756;2023-04-25T05:18:43;22.70;;;12.83;;
68680;SDS011;55836;49.858;6.756;2023-04-25T05:21:09;19.83;;;13.77;;
68680;SDS011;55836;49.858;6.756;2023-04-25T05:23:35;20.40;;;12.93;;
68680;SDS011;55836;49.858;6.756;2023-04-25T05:26:01;23.17;;;14.17;;
68680;SDS011;55836;49.858;6.756;2023-04-25T05:28:27;19.37;;;13.93;;
68680;SDS011;55836;49.858;6.756;2023-04-25T05:30:53;22.43;;;13.10;;
68680;SDS011;55836;49.858;6.756;2023-04-25T05:33:19;23.40;;;13.97;;
68680;SDS011;55836;49.858;6.756;2023-04-25T05:35:45;24.40;;;14.73;;
68680;SDS011;55836;49.858;6.756;2023-04-25T05:38:11;22.40;;;14.80;;
68680;SDS011;55836;49.858;6.756;2023-04-25T05:40:37;20.00;;;14.20;;
68680;SDS011;55836;49.858;6.756;2023-04-25T05:43:03;20.80;;;14.27;;
68680;SDS011;55836;49.858;6.756;2023-04-25T05:45:29;19.87;;;14.30;;
68680;SDS011;55836;49.858;6.756;2023-04-25T05:47:55;18.80;;;13.90;;
68680;SDS011;55836;49.858;6.756;2023-04-25T05:50:21;21.53;;;13.60;;
68680;SDS011;55836;49.858;6.756;2023-04-25T05:52:47;19.37;;;13.13;;
68680;SDS011;55836;49.858;6.756;2023-04-25T05:55:13;19.93;;;14.00;;
68680;SDS011;55836;49.858;6.756;2023-04-25T05:57:40;20.90;;;14.37;;
68680;SDS011;55836;49.858;6.756;2023-04-25T06:00:08;21.27;;;13.30;;
68680;SDS011;55836;49.858;6.756;2023-04-25T06:02:34;19.50;;;14.10;;
68680;SDS011;55836;49.858;6.756;2023-04-25T06:05:00;22.10;;;13.93;;
68680;SDS011;55836;49.858;6.756;2023-04-25T06:07:28;19.07;;;12.17;;
68680;SDS011;55836;49.858;6.756;2023-04-25T06:09:57;21.03;;;13.27;;
68680;SDS011;55836;49.858;6.756;2023-04-25T06:12:25;19.87;;;11.77;;
68680;SDS011;55836;49.858;6.756;2023-04-25T06:14:51;19.97;;;11.60;;
68680;SDS011;55836;49.858;6.756;2023-04-25T06:17:17;18.27;;;11.83;;
68680;SDS011;55836;49.858;6.756;2023-04-25T06:19:43;17.60;;;10.77;;
68680;SDS011;55836;49.858;6.756;2023-04-25T06:22:09;18.13;;;11.60;;
68680;SDS011;55836;49.858;6.756;2023-04-25T06:24:35;19.13;;;13.13;;
68680;SDS011;55836;49.858;6.756;2023-04-25T06:27:01;17.30;;;11.33;;
68680;SDS011;55836;49.858;6.756;2023-04-25T06:29:27;22.00;;;13.40;;
68680;SDS011;55836;49.858;6.756;2023-04-25T06:31:53;19.83;;;12.13;;
68680;SDS011;55836;49.858;6.756;2023-04-25T06:34:19;16.13;;;12.33;;
68680;SDS011;55836;49.858;6.756;2023-04-25T06:36:45;17.57;;;12.27;;
68680;SDS011;55836;49.858;6.756;2023-04-25T06:39:11;19.47;;;12.73;;
68680;SDS011;55836;49.858;6.756;2023-04-25T06:41:37;18.77;;;10.87;;
68680;SDS011;55836;49.858;6.756;2023-04-25T06:44:03;18.73;;;11.27;;
68680;SDS011;55836;49.858;6.756;2023-04-25T06:46:29;21.77;;;11.80;;
68680;SDS011;55836;49.858;6.756;2023-04-25T06:48:55;20.30;;;12.10;;
68680;SDS011;55836;49.858;6.756;2023-04-25T06:51:21;16.67;;;11.57;;
68680;SDS011;55836;49.858;6.756;2023-04-25T06:53:49;20.30;;;12.80;;
68680;SDS011;55836;49.858;6.756;2023-04-25T06:56:15;16.43;;;11.13;;
68680;SDS011;55836;49.858;6.756;2023-04-25T06:58:41;20.47;;;12.20;;
68680;SDS011;55836;49.858;6.756;2023-04-25T07:01:07;16.93;;;12.27;;
68680;SDS011;55836;49.858;6.756;2023-04-25T07:03:33;24.73;;;13.50;;
68680;SDS011;55836;49.858;6.756;2023-04-25T07:05:59;22.13;;;12.53;;
68680;SDS011;55836;49.858;6.756;2023-04-25T07:08:25;22.13;;;12.30;;
68680;SDS011;55836;49.858;6.756;2023-04-25T07:10:51;18.50;;;11.53;;
68680;SDS011;55836;49.858;6.756;2023-04-25T07:13:17;23.83;;;12.60;;
68680;SDS011;55836;49.858;6.756;2023-04-25T07:15:43;18.43;;;11.93;;
68680;SDS011;55836;49.858;6.756;2023-04-25T07:18:09;28.10;;;12.57;;
68680;SDS011;55836;49.858;6.756;2023-04-25T07:20:36;18.80;;;11.27;;
68680;SDS011;55836;49.858;6.756;2023-04-25T07:23:02;18.17;;;10.97;;
68680;SDS011;55836;49.858;6.756;2023-04-25T07:25:28;15.00;;;10.60;;
68680;SDS011;55836;49.858;6.756;2023-04-25T07:27:54;18.53;;;11.20;;
68680;SDS011;55836;49.858;6.756;2023-04-25T07:30:20;16.60;;;9.90;;
68680;SDS011;55836;49.858;6.756;2023-04-25T07:32:46;17.47;;;11.47;;
68680;SDS011;55836;49.858;6.756;2023-04-25T07:35:12;15.77;;;9.83;;
68680;SDS011;55836;49.858;6.756;2023-04-25T07:37:38;20.83;;;9.67;;
68680;SDS011;55836;49.858;6.756;2023-04-25T07:40:04;18.17;;;9.60;;
68680;SDS011;55836;49.858;6.756;2023-04-25T07:42:30;16.97;;;9.10;;
68680;SDS011;55836;49.858;6.756;2023-04-25T07:44:56;17.67;;;8.57;;
68680;SDS011;55836;49.858;6.756;2023-04-25T07:47:23;10.93;;;7.27;;
68680;SDS011;55836;49.858;6.756;2023-04-25T07:49:49;16.10;;;9.33;;
68680;SDS011;55836;49.858;6.756;2023-04-25T07:52:15;18.57;;;9.07;;
68680;SDS011;55836;49.858;6.756;2023-04-25T07:54:41;14.90;;;8.80;;
68680;SDS011;55836;49.858;6.756;2023-04-25T07:57:07;12.67;;;7.23;;
68680;SDS011;55836;49.858;6.756;2023-04-25T07:59:33;8.93;;;6.17;;
68680;SDS011;55836;49.858;6.756;2023-04-25T08:02:00;12.13;;;7.70;;
68680;SDS011;55836;49.858;6.756;2023-04-25T08:04:26;13.57;;;7.27;;
68680;SDS011;55836;49.858;6.756;2023-04-25T08:06:52;11.60;;;7.17;;
68680;SDS011;55836;49.858;6.756;2023-04-25T08:09:21;11.07;;;7.20;;
68680;SDS011;55836;49.858;6.756;2023-04-25T08:11:47;9.93;;;6.50;;
68680;SDS011;55836;49.858;6.756;2023-04-25T08:14:13;11.17;;;6.00;;
68680;SDS011;55836;49.858;6.756;2023-04-25T08:16:39;15.10;;;6.60;;
68680;SDS011;55836;49.858;6.756;2023-04-25T08:19:05;11.73;;;6.83;;
68680;SDS011;55836;49.858;6.756;2023-04-25T08:21:31;11.83;;;6.60;;
68680;SDS011;55836;49.858;6.756;2023-04-25T08:23:57;10.63;;;6.30;;
68680;SDS011;55836;49.858;6.756;2023-04-25T08:26:24;14.33;;;6.40;;
68680;SDS011;55836;49.858;6.756;2023-04-25T08:28:50;10.10;;;5.87;;
68680;SDS011;55836;49.858;6.756;2023-04-25T08:31:16;11.63;;;5.93;;
68680;SDS011;55836;49.858;6.756;2023-04-25T08:33:42;8.47;;;6.10;;
68680;SDS011;55836;49.858;6.756;2023-04-25T08:36:09;10.13;;;5.17;;
68680;SDS011;55836;49.858;6.756;2023-04-25T08:38:35;7.60;;;5.37;;
68680;SDS011;55836;49.858;6.756;2023-04-25T08:41:01;8.97;;;4.90;;
68680;SDS011;55836;49.858;6.756;2023-04-25T08:43:28;9.40;;;4.70;;
68680;SDS011;55836;49.858;6.756;2023-04-25T08:45:58;8.07;;;5.03;;
68680;SDS011;55836;49.858;6.756;2023-04-25T08:48:26;10.20;;;5.63;;
68680;SDS011;55836;49.858;6.756;2023-04-25T08:50:56;8.50;;;5.93;;
68680;SDS011;55836;49.858;6.756;2023-04-25T08:53:27;7.17;;;4.90;;
68680;SDS011;55836;49.858;6.756;2023-04-25T08:55:57;9.23;;;4.90;;
68680;SDS011;55836;49.858;6.756;2023-04-25T08:58:23;7.70;;;4.60;;
68680;SDS011;55836;49.858;6.756;2023-04-25T09:00:50;6.90;;;5.33;;
68680;SDS011;55836;49.858;6.756;2023-04-25T09:03:19;6.83;;;5.07;;
68680;SDS011;55836;49.858;6.756;2023-04-25T09:05:45;6.63;;;5.37;;
68680;SDS011;55836;49.858;6.756;2023-04-25T09:08:11;12.17;;;4.87;;
68680;SDS011;55836;49.858;6.756;2023-04-25T09:10:37;10.83;;;4.27;;
68680;SDS011;55836;49.858;6.756;2023-04-25T09:13:10;6.77;;;4.53;;
68680;SDS011;55836;49.858;6.756;2023-04-25T09:15:49;6.17;;;4.70;;
68680;SDS011;55836;49.858;6.756;2023-04-25T09:18:26;12.00;;;5.43;;
68680;SDS011;55836;49.858;6.756;2023-04-25T09:20:53;7.50;;;4.50;;
68680;SDS011;55836;49.858;6.756;2023-04-25T09:23:19;7.93;;;4.40;;
68680;SDS011;55836;49.858;6.756;2023-04-25T09:25:49;8.13;;;4.63;;
68680;SDS011;55836;49.858;6.756;2023-04-25T09:28:15;9.03;;;4.80;;
68680;SDS011;55836;49.858;6.756;2023-04-25T09:30:41;8.27;;;5.47;;
68680;SDS011;55836;49.858;6.756;2023-04-25T09:33:08;5.83;;;4.03;;
68680;SDS011;55836;49.858;6.756;2023-04-25T09:35:35;7.97;;;4.77;;
68680;SDS011;55836;49.858;6.756;2023-04-25T09:38:06;9.67;;;5.10;;
68680;SDS011;55836;49.858;6.756;2023-04-25T09:40:32;6.23;;;4.60;;
68680;SDS011;55836;49.858;6.756;2023-04-25T09:42:58;5.63;;;4.27;;
68680;SDS011;55836;49.858;6.756;2023-04-25T09:45:25;9.47;;;4.67;;
68680;SDS011;55836;49.858;6.756;2023-04-25T09:47:55;9.50;;;5.50;;
68680;SDS011;55836;49.858;6.756;2023-04-25T09:50:22;8.30;;;4.53;;
68680;SDS011;55836;49.858;6.756;2023-04-25T09:53:05;12.03;;;4.30;;
68680;SDS011;55836;49.858;6.756;2023-04-25T09:55:32;9.27;;;5.57;;
68680;SDS011;55836;49.858;6.756;2023-04-25T09:58:00;12.97;;;5.33;;
68680;SDS011;55836;49.858;6.756;2023-04-25T10:00:30;9.93;;;4.90;;
68680;SDS011;55836;49.858;6.756;2023-04-25T10:02:57;8.53;;;5.37;;
68680;SDS011;55836;49.858;6.756;2023-04-25T10:05:23;9.07;;;4.67;;
68680;SDS011;55836;49.858;6.756;2023-04-25T10:07:49;10.07;;;4.57;;
68680;SDS011;55836;49.858;6.756;2023-04-25T10:10:16;8.93;;;4.70;;
68680;SDS011;55836;49.858;6.756;2023-04-25T10:12:43;8.90;;;4.40;;
68680;SDS011;55836;49.858;6.756;2023-04-25T10:15:10;10.53;;;5.03;;
68680;SDS011;55836;49.858;6.756;2023-04-25T10:17:36;6.80;;;4.80;;
68680;SDS011;55836;49.858;6.756;2023-04-25T10:20:02;9.33;;;5.47;;
68680;SDS011;55836;49.858;6.756;2023-04-25T10:22:34;11.03;;;4.77;;
68680;SDS011;55836;49.858;6.756;2023-04-25T10:25:01;13.10;;;5.10;;
68680;SDS011;55836;49.858;6.756;2023-04-25T10:27:29;7.73;;;4.60;;
68680;SDS011;55836;49.858;6.756;2023-04-25T10:32:30;7.33;;;3.67;;
68680;SDS011;55836;49.858;6.756;2023-04-25T10:34:57;9.40;;;4.20;;
68680;SDS011;55836;49.858;6.756;2023-04-25T10:37:24;10.67;;;4.27;;
68680;SDS011;55836;49.858;6.756;2023-04-25T10:39:50;8.70;;;4.00;;
68680;SDS011;55836;49.858;6.756;2023-04-25T10:42:18;13.23;;;4.10;;
68680;SDS011;55836;49.858;6.756;2023-04-25T10:45:00;5.77;;;4.17;;
68680;SDS011;55836;49.858;6.756;2023-04-25T10:47:34;11.60;;;4.17;;
68680;SDS011;55836;49.858;6.756;2023-04-25T10:50:05;8.80;;;3.90;;
68680;SDS011;55836;49.858;6.756;2023-04-25T10:52:32;5.30;;;3.70;;
68680;SDS011;55836;49.858;6.756;2023-04-25T10:54:58;6.93;;;3.87;;
68680;SDS011;55836;49.858;6.756;2023-04-25T10:59:58;8.33;;;4.57;;
68680;SDS011;55836;49.858;6.756;2023-04-25T11:02:26;9.53;;;4.47;;
68680;SDS011;55836;49.858;6.756;2023-04-25T11:04:53;10.43;;;4.40;;
68680;SDS011;55836;49.858;6.756;2023-04-25T11:09:55;8.97;;;4.50;;
68680;SDS011;55836;49.858;6.756;2023-04-25T11:12:21;9.33;;;4.20;;
68680;SDS011;55836;49.858;6.756;2023-04-25T11:14:50;6.63;;;3.77;;
68680;SDS011;55836;49.858;6.756;2023-04-25T11:17:16;15.43;;;4.60;;
68680;SDS011;55836;49.858;6.756;2023-04-25T11:19:42;10.93;;;4.27;;
68680;SDS011;55836;49.858;6.756;2023-04-25T11:22:09;9.43;;;4.73;;
68680;SDS011;55836;49.858;6.756;2023-04-25T11:24:36;7.43;;;4.00;;
68680;SDS011;55836;49.858;6.756;2023-04-25T11:27:03;7.73;;;4.00;;
68680;SDS011;55836;49.858;6.756;2023-04-25T11:29:29;10.47;;;4.10;;
68680;SDS011;55836;49.858;6.756;2023-04-25T11:31:55;9.93;;;4.37;;
68680;SDS011;55836;49.858;6.756;2023-04-25T11:34:26;10.57;;;4.00;;
68680;SDS011;55836;49.858;6.756;2023-04-25T11:36:52;7.23;;;3.77;;
68680;SDS011;55836;49.858;6.756;2023-04-25T11:39:19;9.33;;;3.83;;
68680;SDS011;55836;49.858;6.756;2023-04-25T11:41:45;8.43;;;3.53;;
68680;SDS011;55836;49.858;6.756;2023-04-25T11:44:12;8.63;;;3.97;;
68680;SDS011;55836;49.858;6.756;2023-04-25T11:46:40;6.63;;;3.60;;
68680;SDS011;55836;49.858;6.756;2023-04-25T11:49:07;8.83;;;4.07;;
68680;SDS011;55836;49.858;6.756;2023-04-25T11:51:44;5.83;;;3.80;;
68680;SDS011;55836;49.858;6.756;2023-04-25T11:54:11;8.33;;;3.67;;
68680;SDS011;55836;49.858;6.756;2023-04-25T11:56:37;8.37;;;3.90;;
68680;SDS011;55836;49.858;6.756;2023-04-25T11:59:04;6.70;;;3.70;;
68680;SDS011;55836;49.858;6.756;2023-04-25T12:01:31;10.20;;;3.73;;
68680;SDS011;55836;49.858;6.756;2023-04-25T12:03:58;8.40;;;4.37;;
68680;SDS011;55836;49.858;6.756;2023-04-25T12:06:27;6.47;;;3.87;;
68680;SDS011;55836;49.858;6.756;2023-04-25T12:09:03;7.30;;;4.87;;
68680;SDS011;55836;49.858;6.756;2023-04-25T12:11:30;7.90;;;3.80;;
68680;SDS011;55836;49.858;6.756;2023-04-25T12:14:02;10.07;;;3.33;;
68680;SDS011;55836;49.858;6.756;2023-04-25T12:16:29;8.77;;;3.23;;
68680;SDS011;55836;49.858;6.756;2023-04-25T12:18:56;8.43;;;3.77;;
68680;SDS011;55836;49.858;6.756;2023-04-25T12:21:27;10.03;;;3.40;;
68680;SDS011;55836;49.858;6.756;2023-04-25T12:23:53;5.00;;;2.97;;
68680;SDS011;55836;49.858;6.756;2023-04-25T12:26:19;7.77;;;3.37;;
68680;SDS011;55836;49.858;6.756;2023-04-25T12:28:46;4.97;;;2.90;;
68680;SDS011;55836;49.858;6.756;2023-04-25T12:31:13;4.50;;;2.80;;
68680;SDS011;55836;49.858;6.756;2023-04-25T12:33:40;5.87;;;2.90;;
68680;SDS011;55836;49.858;6.756;2023-04-25T12:36:07;5.63;;;3.00;;
68680;SDS011;55836;49.858;6.756;2023-04-25T12:38:35;6.97;;;3.07;;
68680;SDS011;55836;49.858;6.756;2023-04-25T12:41:02;5.80;;;2.60;;
68680;SDS011;55836;49.858;6.756;2023-04-25T12:43:28;5.33;;;2.57;;
68680;SDS011;55836;49.858;6.756;2023-04-25T12:45:54;7.60;;;3.43;;
68680;SDS011;55836;49.858;6.756;2023-04-25T12:48:21;5.43;;;3.00;;
68680;SDS011;55836;49.858;6.756;2023-04-25T12:50:48;7.37;;;2.97;;
68680;SDS011;55836;49.858;6.756;2023-04-25T12:53:21;7.23;;;2.80;;
68680;SDS011;55836;49.858;6.756;2023-04-25T12:55:47;6.53;;;3.77;;
68680;SDS011;55836;49.858;6.756;2023-04-25T12:58:14;5.77;;;2.73;;
68680;SDS011;55836;49.858;6.756;2023-04-25T13:00:40;6.23;;;2.90;;
68680;SDS011;55836;49.858;6.756;2023-04-25T13:03:07;7.77;;;3.40;;
68680;SDS011;55836;49.858;6.756;2023-04-25T13:05:33;5.03;;;3.13;;
68680;SDS011;55836;49.858;6.756;2023-04-25T13:07:59;8.90;;;3.50;;
68680;SDS011;55836;49.858;6.756;2023-04-25T13:10:25;9.67;;;3.77;;
68680;SDS011;55836;49.858;6.756;2023-04-25T13:12:51;4.77;;;3.23;;
68680;SDS011;55836;49.858;6.756;2023-04-25T13:15:17;10.80;;;3.93;;
68680;SDS011;55836;49.858;6.756;2023-04-25T13:17:43;10.20;;;3.27;;
68680;SDS011;55836;49.858;6.756;2023-04-25T13:20:09;9.53;;;3.80;;
68680;SDS011;55836;49.858;6.756;2023-04-25T13:22:37;6.33;;;2.87;;
68680;SDS011;55836;49.858;6.756;2023-04-25T13:25:03;5.10;;;2.60;;
68680;SDS011;55836;49.858;6.756;2023-04-25T13:27:30;5.67;;;2.60;;
68680;SDS011;55836;49.858;6.756;2023-04-25T13:29:57;6.30;;;2.50;;
68680;SDS011;55836;49.858;6.756;2023-04-25T13:32:23;6.70;;;3.43;;
68680;SDS011;55836;49.858;6.756;2023-04-25T13:34:50;4.90;;;2.17;;
68680;SDS011;55836;49.858;6.756;2023-04-25T13:37:16;7.57;;;2.87;;
68680;SDS011;55836;49.858;6.756;2023-04-25T13:39:42;7.73;;;2.87;;
68680;SDS011;55836;49.858;6.756;2023-04-25T13:42:08;3.23;;;2.10;;
68680;SDS011;55836;49.858;6.756;2023-04-25T13:44:36;6.07;;;2.50;;
68680;SDS011;55836;49.858;6.756;2023-04-25T13:47:02;5.97;;;2.13;;
68680;SDS011;55836;49.858;6.756;2023-04-25T13:49:28;6.77;;;3.00;;
68680;SDS011;55836;49.858;6.756;2023-04-25T13:51:54;5.00;;;2.47;;
68680;SDS011;55836;49.858;6.756;2023-04-25T13:54:20;3.33;;;2.40;;
68680;SDS011;55836;49.858;6.756;2023-04-25T13:56:46;5.27;;;2.37;;
68680;SDS011;55836;49.858;6.756;2023-04-25T13:59:13;2.80;;;2.03;;
68680;SDS011;55836;49.858;6.756;2023-04-25T14:01:39;4.03;;;1.83;;
68680;SDS011;55836;49.858;6.756;2023-04-25T14:04:05;4.27;;;2.30;;
68680;SDS011;55836;49.858;6.756;2023-04-25T14:06:31;5.93;;;2.40;;
68680;SDS011;55836;49.858;6.756;2023-04-25T14:08:58;6.27;;;3.03;;
68680;SDS011;55836;49.858;6.756;2023-04-25T14:11:25;5.07;;;2.30;;
68680;SDS011;55836;49.858;6.756;2023-04-25T14:13:52;5.17;;;2.10;;
68680;SDS011;55836;49.858;6.756;2023-04-25T14:16:18;5.13;;;2.43;;
68680;SDS011;55836;49.858;6.756;2023-04-25T14:18:44;6.00;;;2.67;;
68680;SDS011;55836;49.858;6.756;2023-04-25T14:21:10;5.80;;;2.20;;
68680;SDS011;55836;49.858;6.756;2023-04-25T14:23:36;2.40;;;2.13;;
68680;SDS011;55836;49.858;6.756;2023-04-25T14:26:02;3.77;;;2.30;;
68680;SDS011;55836;49.858;6.756;2023-04-25T14:28:28;8.07;;;3.07;;
68680;SDS011;55836;49.858;6.756;2023-04-25T14:30:54;3.80;;;2.33;;
68680;SDS011;55836;49.858;6.756;2023-04-25T14:33:20;5.87;;;3.50;;
68680;SDS011;55836;49.858;6.756;2023-04-25T14:35:46;3.87;;;2.40;;
68680;SDS011;55836;49.858;6.756;2023-04-25T14:38:12;7.47;;;2.73;;